This demonstration page uses our WeatherBlox Daily Observations layout. Learn more.

Left ArrowRight Arrow

Hourly Observations for April 21, 2021

Temp ( °F °C ) Dew Point ( °F °C ) Humidity (%) Winds ( mph kmh ) Pressure ( in mb ) Visibility ( mi km ) Precip ( " mm )
12:51 am 00:51 Clear 57 13.9 9 -12.8 15 15 E 5 7 29.78 1009 10 16.0934 0 0
1:51 am 01:51 Clear 57 13.9 9 -12.8 15 15 E 6 9 29.77 1008 10 16.0934 0 0
2:51 am 02:51 Clear 52 11.1 12 -11.1 20 20 SE 6 9 29.78 1009 10 16.0934 0 0
3:51 am 03:51 Clear 54 12.2 10 -12.2 17 17 ENE 7 11 29.77 1008 10 16.0934 0 0
4:51 am 04:51 Clear 51 10.6 10 -12.2 19 19 NE 10 17 29.78 1009 10 16.0934 0 0
5:51 am 05:51 Sunny 53 11.7 10 -12.2 18 18 ENE 3 6 29.8 1009 10 16.0934 0 0
6:51 am 06:51 Sunny 62 16.7 13 -10.6 14 14 E 10 17 29.79 1009 10 16.0934 0 0
7:51 am 07:51 Sunny 69 20.6 13 -10.6 11 11 E 15 24 29.8 1009 10 16.0934 0 0
8:51 am 08:51 Sunny 73 22.8 13 -10.6 10 10 E 12 19 29.79 1009 10 16.0934 0 0
9:51 am 09:51 Sunny 78 25.6 14 -10 9 9 SSE 12 19 29.77 1008 10 16.0934 0 0
10:51 am 10:51 Sunny 80 26.7 18 -7.8 10 10 SE 16 26 29.75 1007 10 16.0934 0 0
11:51 am 11:51 Sunny 81 27.2 20 -6.7 10 10 SSE 10 17 29.7 1006 10 16.0934 0 0
12:51 pm 12:51 Sunny 86 30 20 -6.7 9 9 WSW 14 22 29.67 1005 10 16.0934 0 0
1:51 pm 13:51 Sunny 87 30.6 20 -6.7 8 8 NE 8 13 29.63 1003 10 16.0934 0 0
2:51 pm 14:51 Sunny 85 29.4 20 -6.7 9 9 undefined N/A 29.6 1003 10 16.0934 0 0
3:51 pm 15:51 Sunny 87 30.6 21 -6.1 9 9 W 17 28 29.57 1001 10 16.0934 0 0
4:51 pm 16:51 Sunny 85 29.4 20 -6.7 9 9 W 23 37 29.57 1001 10 16.0934 0 0
5:51 pm 17:51 Sunny 82 27.8 20 -6.7 10 10 W 23 37 29.58 1002 10 16.0934 0 0
6:51 pm 18:51 Sunny 78 25.6 20 -6.7 11 11 W 17 28 29.58 1002 10 16.0934 0 0
7:51 pm 19:51 Clear 74 23.3 21 -6.1 14 14 WSW 8 13 29.6 1002 10 16.0934 0 0
8:51 pm 20:51 Clear 74 23.3 23 -5 15 15 W 12 19 29.62 1003 10 16.0934 0 0
9:51 pm 21:51 Clear 70 21.1 17 -8.3 13 13 NW 10 17 29.64 1004 10 16.0934 0 0
10:51 pm 22:51 Clear 69 20.6 17 -8.3 14 14 NW 17 28 29.65 1004 10 16.0934 0 0
11:51 pm 23:51 Clear 68 20 17 -8.3 14 14 NW 13 20 29.66 1005 10 16.0934 0 0

Powered by AerisWeather